Time;durP1;ratioP1;P1;durP2;ratioP2;P2;SDS_P1;SDS_P2;PMS_P1;PMS_P2;Temp;Humidity;BMP_temperature;BMP_pressure;BME280_temperature;BME280_humidity;BME280_pressure;Samples;Min_cycle;Max_cycle;Signal;HPM_P1;HPM_P2
2022/07/06 00:01:54;;;;;;;8.30;2.20;;;;;;;12.33;79.29;100182.05;105058;1271;73557;-68
2022/07/06 00:04:42;;;;;;;6.00;1.80;;;;;;;12.31;79.58;100178.30;105138;1271;59746;-69
2022/07/06 00:07:30;;;;;;;8.60;2.10;;;;;;;12.29;79.71;100181.34;104779;1271;60501;-69
2022/07/06 00:10:20;;;;;;;7.70;1.90;;;;;;;12.27;79.69;100178.82;104948;1271;74179;-70
2022/07/06 00:13:08;;;;;;;6.50;1.70;;;;;;;12.26;79.54;100180.87;104792;1274;69083;-71
2022/07/06 00:15:56;;;;;;;8.50;2.30;;;;;;;12.23;79.97;100180.73;104884;1272;71561;-70
2022/07/06 00:18:45;;;;;;;9.60;2.10;;;;;;;12.21;80.04;100178.76;105080;1271;60456;-68
2022/07/06 00:21:33;;;;;;;8.70;2.10;;;;;;;12.19;80.03;100174.85;105054;1271;61096;-67
2022/07/06 00:24:22;;;;;;;9.00;2.00;;;;;;;12.19;80.69;100175.77;105050;1271;73895;-70
2022/07/06 00:27:11;;;;;;;8.30;2.10;;;;;;;12.18;80.48;100170.85;105137;1271;69096;-67
2022/07/06 00:29:59;;;;;;;6.70;1.80;;;;;;;12.16;80.37;100172.61;104983;1271;74558;-71
2022/07/06 00:32:47;;;;;;;7.20;1.90;;;;;;;12.13;80.60;100171.83;104945;1271;59750;-70
2022/07/06 00:35:35;;;;;;;8.20;2.20;;;;;;;12.10;81.19;100164.77;105181;1271;59662;-70
2022/07/06 00:38:24;;;;;;;8.10;2.30;;;;;;;12.07;81.11;100164.63;104772;1272;74576;-70
2022/07/06 00:41:14;;;;;;;10.40;1.90;;;;;;;12.05;81.70;100161.23;104966;1271;69565;-70
2022/07/06 00:44:09;;;;;;;9.30;2.00;;;;;;;12.05;81.62;100161.61;104963;1271;72471;-70
2022/07/06 00:46:58;;;;;;;6.10;1.70;;;;;;;12.04;81.90;100162.07;105109;1271;60442;-71
2022/07/06 00:52:56;;;;;;;7.10;2.00;;;;;;;12.03;82.01;100161.27;105036;1271;74961;-71
2022/07/06 00:55:44;;;;;;;6.70;1.70;;;;;;;12.01;81.94;100159.81;104856;1271;69939;-70
2022/07/06 00:58:32;;;;;;;6.40;1.90;;;;;;;12.00;82.47;100160.81;104939;1271;73505;-71
2022/07/06 01:01:21;;;;;;;7.30;2.40;;;;;;;11.98;82.65;100160.57;105235;1271;59761;-67
2022/07/06 01:04:10;;;;;;;7.70;2.10;;;;;;;11.94;82.50;100151.09;105030;1271;59657;-68
2022/07/06 01:06:59;;;;;;;7.60;2.00;;;;;;;11.92;82.94;100154.59;105113;1271;74909;-70
2022/07/06 01:09:47;;;;;;;6.60;2.20;;;;;;;11.91;83.13;100148.52;105106;1271;68191;-69
2022/07/06 01:12:36;;;;;;;7.80;2.50;;;;;;;11.90;82.96;100149.66;104837;1271;74188;-69
2022/07/06 01:15:25;;;;;;;7.80;2.00;;;;;;;11.89;83.27;100145.83;104889;1271;59691;-67
2022/07/06 01:18:14;;;;;;;6.30;1.80;;;;;;;11.88;83.33;100147.48;104837;1271;60838;-68
2022/07/06 01:21:14;;;;;;;6.30;2.20;;;;;;;11.86;83.47;100150.33;105073;1271;73064;-68
2022/07/06 01:24:02;;;;;;;7.10;1.50;;;;;;;11.85;83.92;100152.95;105059;1271;68365;-66
2022/07/06 01:26:50;;;;;;;6.40;1.90;;;;;;;11.80;84.00;100151.67;105073;1271;74468;-70
2022/07/06 01:29:39;;;;;;;7.20;2.10;;;;;;;11.75;84.25;100151.76;104824;1271;59701;-69
2022/07/06 01:32:29;;;;;;;8.40;2.10;;;;;;;11.70;84.33;100151.27;104978;1271;60382;-68
2022/07/06 01:35:17;;;;;;;7.40;2.20;;;;;;;11.66;84.50;100147.54;105031;1271;73550;-70
2022/07/06 01:38:05;;;;;;;7.30;2.20;;;;;;;11.62;84.95;100145.38;104868;1272;69559;-72
2022/07/06 01:40:53;;;;;;;7.10;2.10;;;;;;;11.58;85.34;100142.21;104823;1271;73475;-70
2022/07/06 01:43:42;;;;;;;9.00;2.10;;;;;;;11.56;85.24;100142.44;105053;1271;59793;-70
2022/07/06 01:46:31;;;;;;;8.20;2.20;;;;;;;11.54;85.41;100147.04;104790;1271;61324;-70
2022/07/06 01:49:19;;;;;;;8.10;1.80;;;;;;;11.52;85.88;100148.11;104855;1271;74672;-71
2022/07/06 01:52:08;;;;;;;9.00;2.90;;;;;;;11.49;86.26;100144.95;105057;1271;68452;-70
2022/07/06 01:54:57;;;;;;;9.80;2.50;;;;;;;11.47;86.29;100142.62;104922;1271;73333;-68
2022/07/06 01:57:45;;;;;;;7.20;2.10;;;;;;;11.44;86.51;100142.15;104916;1271;59804;-67
2022/07/06 02:00:33;;;;;;;6.30;1.90;;;;;;;11.42;86.81;100139.65;104882;1271;59548;-69
2022/07/06 02:03:21;;;;;;;8.50;2.20;;;;;;;11.39;87.10;100136.86;104823;1272;74101;-63
2022/07/06 02:06:11;;;;;;;6.10;1.60;;;;;;;11.37;88.12;100137.01;104999;1271;69575;-65
2022/07/06 02:09:00;;;;;;;8.60;2.10;;;;;;;11.35;88.07;100138.24;104891;1271;72718;-60
2022/07/06 02:11:48;;;;;;;8.30;2.20;;;;;;;11.35;88.18;100138.46;105266;1271;59746;-62
2022/07/06 02:14:36;;;;;;;8.90;2.40;;;;;;;11.33;88.71;100139.83;104872;1271;59954;-60
2022/07/06 02:17:24;;;;;;;7.90;2.20;;;;;;;11.32;88.75;100140.94;104859;1271;72235;-66
2022/07/06 02:20:12;;;;;;;8.70;2.00;;;;;;;11.33;88.63;100145.52;104810;1271;69435;-61
2022/07/06 02:23:00;;;;;;;8.10;1.80;;;;;;;11.34;88.99;100142.23;104862;1271;73218;-65
2022/07/06 02:25:48;;;;;;;7.80;1.90;;;;;;;11.36;89.26;100139.92;104816;1271;59716;-65
2022/07/06 02:28:36;;;;;;;6.10;1.70;;;;;;;11.38;89.22;100136.38;104814;1271;62081;-68
2022/07/06 02:31:25;;;;;;;6.60;1.60;;;;;;;11.42;89.71;100140.35;104870;1271;73752;-63
2022/07/06 02:34:13;;;;;;;7.10;1.80;;;;;;;11.44;89.52;100139.67;104880;1271;67388;-65
2022/07/06 02:37:02;;;;;;;5.20;1.50;;;;;;;11.48;89.60;100138.64;104882;1271;73448;-68
2022/07/06 02:39:50;;;;;;;6.30;1.70;;;;;;;11.52;90.03;100137.29;104737;1271;61405;-66
2022/07/06 02:42:38;;;;;;;9.00;1.90;;;;;;;11.55;89.57;100139.52;104831;1271;59624;-66
2022/07/06 02:45:27;;;;;;;5.30;1.70;;;;;;;11.58;90.02;100139.27;105067;1271;74227;-69
2022/07/06 02:48:17;;;;;;;7.40;1.90;;;;;;;11.62;90.15;100136.98;105087;1271;69343;-68
2022/07/06 02:51:05;;;;;;;6.90;1.50;;;;;;;11.66;89.71;100141.96;104777;1271;72645;-66
2022/07/06 02:53:54;;;;;;;6.00;1.70;;;;;;;11.70;89.73;100144.52;104845;1271;61348;-69
2022/07/06 02:56:44;;;;;;;6.30;1.30;;;;;;;11.72;89.40;100148.56;104979;1271;60277;-71
2022/07/06 02:59:32;;;;;;;6.50;1.50;;;;;;;11.77;89.35;100151.41;104864;1271;73716;-67
2022/07/06 03:02:21;;;;;;;6.70;1.70;;;;;;;11.81;89.71;100147.33;104927;1271;67521;-68
2022/07/06 03:05:09;;;;;;;6.50;1.70;;;;;;;11.85;89.60;100145.02;105015;1271;73169;-71
2022/07/06 03:07:58;;;;;;;5.80;1.70;;;;;;;11.91;89.55;100144.05;104881;1271;59637;-67
2022/07/06 03:10:46;;;;;;;10.50;1.90;;;;;;;11.97;89.70;100143.94;104851;1271;59529;-67
2022/07/06 03:13:34;;;;;;;6.30;1.40;;;;;;;12.03;89.54;100142.35;104909;1271;74549;-68
2022/07/06 03:16:22;;;;;;;8.40;1.70;;;;;;;12.12;89.15;100139.52;104902;1271;68132;-67
2022/07/06 03:19:10;;;;;;;5.90;1.50;;;;;;;12.20;89.04;100134.38;104788;1271;73461;-72
2022/07/06 03:21:59;;;;;;;10.40;1.80;;;;;;;12.28;88.68;100136.96;105136;1271;59628;-70
2022/07/06 03:24:48;;;;;;;6.30;1.60;;;;;;;12.38;88.34;100134.18;105091;1271;62004;-69
2022/07/06 03:27:37;;;;;;;7.40;1.60;;;;;;;12.46;88.27;100133.81;105253;1271;74190;-69
2022/07/06 03:30:25;;;;;;;6.10;1.70;;;;;;;12.55;87.83;100132.20;105270;1271;68507;-70
2022/07/06 03:33:14;;;;;;;7.00;1.60;;;;;;;12.63;87.72;100130.45;104749;1271;74398;-69
2022/07/06 03:36:04;;;;;;;6.60;1.70;;;;;;;12.72;87.48;100125.42;105017;1271;59577;-72
2022/07/06 03:38:54;;;;;;;6.70;1.60;;;;;;;12.81;87.23;100127.35;104762;1271;62387;-68
2022/07/06 03:41:43;;;;;;;6.70;1.80;;;;;;;12.89;86.65;100125.55;104869;1271;73669;-68
2022/07/06 03:44:31;;;;;;;6.70;1.60;;;;;;;12.98;86.65;100124.42;105088;1271;67293;-66
2022/07/06 03:47:19;;;;;;;8.30;1.70;;;;;;;13.11;86.28;100127.20;104754;1272;74309;-67
2022/07/06 03:50:08;;;;;;;7.30;1.60;;;;;;;13.22;85.91;100123.59;104825;1271;59794;-68
2022/07/06 03:52:59;;;;;;;7.60;1.60;;;;;;;13.34;85.58;100125.58;105504;1271;60289;-69
2022/07/06 03:59:01;;;;;;;6.40;1.60;;;;;;;13.55;84.83;100123.61;105073;1271;68747;-70
2022/07/06 04:01:52;;;;;;;7.50;1.80;;;;;;;13.63;84.52;100126.40;105269;1273;73474;-71
2022/07/06 04:04:41;;;;;;;7.10;1.90;;;;;;;13.71;84.06;100125.38;104888;1271;60133;-70
2022/07/06 04:07:31;;;;;;;7.60;1.70;;;;;;;13.77;83.88;100119.95;105067;1271;59566;-71
2022/07/06 04:10:20;;;;;;;7.50;1.60;;;;;;;13.86;83.69;100122.81;105007;1274;72149;-72
2022/07/06 04:13:08;;;;;;;6.70;1.70;;;;;;;13.96;83.62;100124.17;105016;1274;69638;-73
2022/07/06 04:15:57;;;;;;;7.30;1.50;;;;;;;14.07;82.96;100129.05;104794;1274;72412;-73
2022/07/06 04:18:45;;;;;;;6.40;1.50;;;;;;;14.16;82.43;100127.02;104836;1273;59563;-74
2022/07/06 04:21:33;;;;;;;8.10;1.50;;;;;;;14.28;82.17;100123.40;104792;1274;61337;-72
2022/07/06 04:24:21;;;;;;;8.20;1.70;;;;;;;14.38;81.59;100122.65;104802;1273;71975;-70
2022/07/06 04:27:10;;;;;;;7.70;1.50;;;;;;;14.45;81.17;100117.55;105030;1271;69635;-73
2022/07/06 04:29:57;;;;;;;7.50;1.90;;;;;;;14.53;80.86;100116.64;104781;1271;74220;-71
2022/07/06 04:32:46;;;;;;;8.70;2.00;;;;;;;14.59;80.55;100108.52;104616;1271;60422;-71
2022/07/06 04:35:34;;;;;;;7.30;1.80;;;;;;;14.66;80.27;100106.76;104713;1271;61972;-72
2022/07/06 04:38:23;;;;;;;6.90;1.40;;;;;;;14.69;79.84;100107.37;104856;1271;74090;-72
2022/07/06 04:41:12;;;;;;;7.30;1.50;;;;;;;14.69;80.11;100106.63;104763;1270;66833;-72
2022/07/06 04:44:01;;;;;;;5.90;1.60;;;;;;;14.67;79.98;100109.68;104816;1271;72402;-70
2022/07/06 04:46:49;;;;;;;6.70;1.70;;;;;;;14.68;79.99;100107.98;104879;1271;60801;-70
2022/07/06 04:49:38;;;;;;;7.30;1.60;;;;;;;14.90;79.92;100105.84;104759;1271;62307;-72
2022/07/06 04:52:27;;;;;;;6.60;1.70;;;;;;;15.52;77.97;100098.09;104740;1273;73803;-66
2022/07/06 04:55:15;;;;;;;10.40;2.20;;;;;;;15.89;76.10;100092.38;104838;1271;68058;-65
2022/07/06 04:58:03;;;;;;;6.10;1.40;;;;;;;16.28;74.36;100100.77;104834;1271;72432;-62
2022/07/06 05:00:54;;;;;;;5.20;1.40;;;;;;;17.03;71.77;100098.39;105098;1271;59654;-64
2022/07/06 05:03:43;;;;;;;7.80;1.60;;;;;;;17.75;68.69;100093.07;105121;1271;59595;-64
2022/07/06 05:06:33;;;;;;;7.70;1.40;;;;;;;18.44;65.61;100094.06;105237;1271;74771;-64
2022/07/06 05:09:22;;;;;;;8.30;1.50;;;;;;;19.08;63.44;100093.99;104722;1271;67149;-65
2022/07/06 05:12:12;;;;;;;8.80;1.90;;;;;;;19.66;60.64;100087.45;104762;1271;74982;-61
2022/07/06 05:15:01;;;;;;;6.30;1.50;;;;;;;20.21;59.26;100082.67;104960;1271;59692;-62
2022/07/06 05:17:49;;;;;;;8.90;1.60;;;;;;;20.86;57.26;100084.51;104573;1273;59609;-63
2022/07/06 05:20:38;;;;;;;6.30;1.20;;;;;;;21.41;54.81;100078.75;104934;1271;73859;-62
2022/07/06 05:23:28;;;;;;;5.90;1.60;;;;;;;21.94;52.72;100069.60;104676;1271;274482;-64
2022/07/06 05:26:16;;;;;;;8.10;1.70;;;;;;;22.52;51.42;100072.81;105118;1271;73505;-60
2022/07/06 05:29:05;;;;;;;7.90;1.70;;;;;;;23.12;49.53;100064.79;104696;1271;59612;-62
2022/07/06 05:31:54;;;;;;;7.30;1.40;;;;;;;23.72;47.03;100059.37;104806;1271;61824;-71
2022/07/06 05:34:42;;;;;;;6.20;1.20;;;;;;;24.67;45.24;100056.91;104748;1271;73754;-77
2022/07/06 05:37:31;;;;;;;5.60;1.00;;;;;;;25.49;41.83;100048.48;105269;1271;67840;-69
2022/07/06 05:40:19;;;;;;;6.60;1.20;;;;;;;26.13;39.85;100044.97;105026;1271;74343;-70
2022/07/06 05:43:07;;;;;;;7.80;1.00;;;;;;;26.59;38.56;100044.98;105077;1271;59721;-68
2022/07/06 05:45:55;;;;;;;5.00;0.90;;;;;;;27.21;37.44;100045.19;104910;1271;60315;-69
2022/07/06 05:51:51;;;;;;;6.30;0.90;;;;;;;28.01;35.33;100028.86;105131;1271;67798;-70
2022/07/06 05:54:40;;;;;;;6.40;1.00;;;;;;;28.50;34.78;100025.80;105351;1271;73408;-76
2022/07/06 05:57:28;;;;;;;6.20;1.20;;;;;;;28.87;33.81;100021.92;105989;1271;59701;-73
2022/07/06 06:00:17;;;;;;;6.60;1.60;;;;;;;29.18;33.20;100024.11;105212;1271;59665;-72
2022/07/06 06:03:07;;;;;;;6.30;1.30;;;;;;;29.04;32.55;100018.45;105640;1273;73013;-74
2022/07/06 06:05:55;;;;;;;4.80;1.10;;;;;;;29.35;31.78;100022.20;105633;1273;67793;-76
2022/07/06 06:08:46;;;;;;;6.80;0.90;;;;;;;29.73;31.70;100021.04;105052;1272;74264;-72
2022/07/06 06:11:34;;;;;;;6.80;0.90;;;;;;;29.87;31.35;100016.46;104877;1273;59586;-70
2022/07/06 06:14:22;;;;;;;6.50;0.90;;;;;;;29.85;30.60;100013.70;105239;1273;59560;-70
2022/07/06 06:17:10;;;;;;;6.00;1.00;;;;;;;30.00;30.55;100010.88;104679;1273;74876;-70
2022/07/06 06:19:59;;;;;;;7.60;1.10;;;;;;;30.36;30.52;100006.77;104886;1273;68940;-71
2022/07/06 06:22:52;;;;;;;5.90;1.00;;;;;;;30.97;29.97;100010.10;104907;1273;73655;-71
2022/07/06 06:25:40;;;;;;;6.00;0.90;;;;;;;30.95;28.99;100010.33;104798;1273;59743;-75
2022/07/06 06:28:28;;;;;;;5.70;0.90;;;;;;;31.20;28.71;100008.70;104846;1273;60965;-73
2022/07/06 06:31:17;;;;;;;4.90;0.90;;;;;;;31.36;28.10;100009.86;105139;1273;74368;-69
2022/07/06 06:34:05;;;;;;;4.80;0.90;;;;;;;30.68;29.01;100004.20;104752;1273;66772;-72
2022/07/06 06:36:52;;;;;;;5.10;0.80;;;;;;;30.43;29.54;100002.81;104927;1273;73261;-73
2022/07/06 06:39:40;;;;;;;4.00;0.80;;;;;;;30.86;28.84;99992.59;104942;1273;59664;-71
2022/07/06 06:42:28;;;;;;;6.20;0.90;;;;;;;30.32;29.81;99996.71;105014;1273;60324;-71
2022/07/06 06:45:18;;;;;;;5.70;1.00;;;;;;;29.50;30.79;99999.79;104993;1273;73784;-72
2022/07/06 06:48:06;;;;;;;4.60;1.00;;;;;;;28.61;31.72;100003.33;104693;1275;67914;-75
2022/07/06 06:51:04;;;;;;;5.90;0.80;;;;;;;28.80;31.93;99999.55;105078;1273;72936;-73
2022/07/06 06:53:52;;;;;;;5.60;0.90;;;;;;;29.68;30.33;99984.71;104742;1273;59761;-68
2022/07/06 06:56:40;;;;;;;6.10;0.90;;;;;;;30.49;29.24;99980.06;105048;1273;60483;-74
2022/07/06 06:59:28;;;;;;;7.30;0.90;;;;;;;31.25;27.82;99977.00;105090;1273;71342;-71
2022/07/06 07:02:16;;;;;;;5.60;0.70;;;;;;;30.76;28.22;99976.46;105263;1271;67113;-72
2022/07/06 07:05:05;;;;;;;8.30;1.10;;;;;;;29.59;29.78;99978.67;105269;1271;73972;-74
2022/07/06 07:07:54;;;;;;;5.10;0.90;;;;;;;28.54;31.71;99982.45;104928;1271;59748;-73
2022/07/06 07:10:51;;;;;;;5.20;0.80;;;;;;;27.47;32.66;99985.51;105537;1271;60313;-71
2022/07/06 07:13:40;;;;;;;5.10;0.90;;;;;;;26.70;34.06;99988.58;105027;1272;73411;-68
2022/07/06 07:16:27;;;;;;;5.90;1.10;;;;;;;25.73;35.41;99988.23;105013;1273;67926;-70
2022/07/06 07:19:16;;;;;;;5.20;1.00;;;;;;;24.81;37.43;99991.61;104772;1271;71711;-74
2022/07/06 07:22:04;;;;;;;5.90;1.00;;;;;;;23.98;39.07;99994.84;104799;1271;59550;-73
2022/07/06 07:24:52;;;;;;;5.00;0.90;;;;;;;24.03;39.94;99998.09;104879;1271;59650;-73
2022/07/06 07:27:40;;;;;;;6.20;1.00;;;;;;;24.60;39.03;99986.80;104743;1271;73973;-71
2022/07/06 07:30:28;;;;;;;5.50;1.00;;;;;;;24.26;40.06;99990.19;104816;1271;68595;-69
2022/07/06 07:33:17;;;;;;;4.90;1.00;;;;;;;23.75;40.72;99995.73;104800;1271;74378;-72
2022/07/06 07:36:06;;;;;;;4.80;0.90;;;;;;;22.98;41.52;100003.02;104766;1271;59643;-75
2022/07/06 07:38:54;;;;;;;6.40;1.10;;;;;;;22.33;43.17;100006.05;105232;1271;62082;-74
2022/07/06 07:41:42;;;;;;;5.80;1.00;;;;;;;21.97;44.51;100008.39;104866;1271;73779;-74
2022/07/06 07:44:30;;;;;;;5.00;1.00;;;;;;;22.16;44.80;100008.37;105100;1271;67970;-75
2022/07/06 07:47:19;;;;;;;5.20;1.20;;;;;;;23.80;42.01;100005.98;105380;1271;72874;-76
2022/07/06 07:50:08;;;;;;;5.60;1.00;;;;;;;25.63;39.37;99998.15;105029;1271;59622;-75
2022/07/06 07:52:56;;;;;;;5.50;1.10;;;;;;;27.56;36.06;99990.42;104888;1272;62144;-76
2022/07/06 07:55:44;;;;;;;5.60;1.00;;;;;;;29.13;31.98;99989.22;105066;1271;74723;-75
2022/07/06 07:58:32;;;;;;;6.40;1.00;;;;;;;29.27;29.80;99992.78;105162;1271;68551;-76
2022/07/06 08:01:20;;;;;;;7.40;0.80;;;;;;;29.76;28.58;99988.08;105219;1271;71539;-75
2022/07/06 08:04:08;;;;;;;5.00;0.90;;;;;;;30.35;27.34;99988.97;105121;1271;60951;-75
2022/07/06 08:06:56;;;;;;;6.60;0.90;;;;;;;30.12;27.46;99990.42;105183;1271;60222;-75
2022/07/06 08:09:48;;;;;;;8.10;1.10;;;;;;;28.83;28.55;99994.89;104537;1271;73987;-74
2022/07/06 08:12:37;;;;;;;5.60;0.80;;;;;;;27.67;29.97;99992.65;104784;1271;69049;-73
2022/07/06 08:15:35;;;;;;;7.00;1.00;;;;;;;26.44;32.44;100000.63;105040;1271;73682;-74
2022/07/06 08:18:23;;;;;;;6.00;1.00;;;;;;;25.34;34.48;100001.28;105285;1271;59767;-74
2022/07/06 08:21:12;;;;;;;5.10;0.90;;;;;;;24.34;36.35;100005.98;104745;1271;59700;-75
2022/07/06 08:24:15;;;;;;;6.40;1.20;;;;;;;23.49;38.26;100005.70;105241;1271;74832;-75
2022/07/06 08:27:04;;;;;;;5.50;1.20;;;;;;;22.91;39.45;100008.16;104792;1271;66792;-76
2022/07/06 08:29:52;;;;;;;5.30;1.10;;;;;;;23.77;39.26;100010.92;105017;1271;73883;-75
2022/07/06 08:32:43;;;;;;;4.60;1.00;;;;;;;25.43;36.25;100001.35;105053;1271;59815;-76
2022/07/06 08:35:52;;;;;;;5.50;1.20;;;;;;;27.15;32.78;99994.35;104922;1271;60432;-75
2022/07/06 08:38:40;;;;;;;5.50;0.70;;;;;;;27.41;31.95;100012.63;105282;1271;73111;-72
2022/07/06 08:41:29;;;;;;;8.00;1.30;;;;;;;26.33;32.59;100023.27;104991;1271;69528;-74
2022/07/06 08:44:18;;;;;;;5.60;1.00;;;;;;;24.91;34.25;100031.30;104978;1271;72873;-75
2022/07/06 08:47:07;;;;;;;5.00;0.70;;;;;;;23.39;37.14;100038.91;104801;1271;60000;-77
2022/07/06 08:49:57;;;;;;;5.20;0.90;;;;;;;22.29;39.51;100042.08;105204;1271;60049;-76
2022/07/06 08:52:46;;;;;;;5.60;0.70;;;;;;;21.31;41.75;100051.84;104766;1272;73777;-75
2022/07/06 08:55:35;;;;;;;4.60;1.00;;;;;;;20.60;43.80;100055.56;104831;1271;67191;-67
2022/07/06 08:58:27;;;;;;;4.70;0.90;;;;;;;19.74;46.66;100053.80;105356;1273;74201;-75
2022/07/06 09:01:17;;;;;;;4.20;0.90;;;;;;;19.24;48.21;100056.02;105415;1271;59806;-74
2022/07/06 09:04:07;;;;;;;5.30;1.20;;;;;;;19.00;49.82;100047.77;105167;1271;60439;-80
2022/07/06 09:06:56;;;;;;;4.90;1.10;;;;;;;19.06;50.71;100046.14;105055;1271;73418;-80
2022/07/06 09:09:45;;;;;;;4.30;0.90;;;;;;;19.27;50.93;100040.77;105252;1271;69220;-79
2022/07/06 09:12:33;;;;;;;6.30;1.10;;;;;;;20.27;48.70;100034.84;105000;1272;73365;-77
2022/07/06 09:15:28;;;;;;;5.30;0.80;;;;;;;20.85;47.75;100039.40;105167;1271;59689;-74
2022/07/06 09:18:16;;;;;;;4.70;0.90;;;;;;;21.51;46.04;100039.25;105154;1273;59547;-77
2022/07/06 09:21:06;;;;;;;5.70;1.00;;;;;;;22.00;44.53;100032.25;104920;1271;72692;-79
2022/07/06 09:24:02;;;;;;;6.10;1.40;;;;;;;22.43;43.80;100031.27;105421;1271;69043;-77
2022/07/06 09:26:50;;;;;;;6.40;1.40;;;;;;;23.56;41.95;100026.95;105130;1271;73697;-79
2022/07/06 09:29:38;;;;;;;7.00;1.10;;;;;;;24.04;40.85;100026.61;105157;1271;59997;-79
2022/07/06 09:32:26;;;;;;;5.70;1.10;;;;;;;24.52;39.44;100031.40;105037;1271;59759;-80
2022/07/06 09:35:36;;;;;;;6.00;1.00;;;;;;;24.41;38.94;100030.41;105449;1271;71713;-79
2022/07/06 09:38:26;;;;;;;5.10;1.00;;;;;;;23.97;38.66;100028.32;105059;1272;68922;-78
2022/07/06 09:41:31;;;;;;;5.90;1.80;;;;;;;23.36;39.24;100025.23;104936;1271;73077;-72
2022/07/06 09:44:35;;;;;;;5.80;1.10;;;;;;;23.09;40.55;100033.13;105229;1273;60134;-72
2022/07/06 09:47:26;;;;;;;6.70;1.30;;;;;;;22.60;41.39;100039.02;105050;1271;60234;-73
2022/07/06 09:50:17;;;;;;;6.60;1.40;;;;;;;22.24;42.75;100037.34;104703;1273;74560;-73
2022/07/06 09:53:07;;;;;;;7.90;1.10;;;;;;;21.92;43.82;100044.64;104712;1271;67061;-74
2022/07/06 09:56:00;;;;;;;7.60;1.20;;;;;;;21.50;43.66;100038.12;104822;1271;74504;-72
2022/07/06 09:58:50;;;;;;;5.40;1.00;;;;;;;21.10;44.91;100045.59;104773;1273;59907;-73
2022/07/06 10:02:00;;;;;;;6.40;1.50;;;;;;;20.84;46.20;100050.09;104843;1271;60451;-72
2022/07/06 10:04:52;;;;;;;5.60;1.00;;;;;;;20.86;46.88;100050.11;105066;1271;73980;-72
2022/07/06 10:07:41;;;;;;;6.00;1.40;;;;;;;21.22;47.35;100046.37;105009;1272;69036;-74
2022/07/06 10:10:31;;;;;;;5.40;1.00;;;;;;;21.89;46.19;100042.16;105126;1271;72588;-73
2022/07/06 10:13:23;;;;;;;4.70;1.10;;;;;;;22.89;44.88;100043.45;104715;1272;59689;-74
2022/07/06 10:16:14;;;;;;;5.70;1.10;;;;;;;23.98;42.59;100040.89;105063;1274;60433;-73
2022/07/06 10:19:09;;;;;;;5.70;1.00;;;;;;;24.61;39.55;100048.68;105055;1271;73694;-73
2022/07/06 10:22:03;;;;;;;6.30;1.10;;;;;;;23.92;40.40;100064.34;104919;1271;69748;-73
2022/07/06 10:24:52;;;;;;;6.40;1.30;;;;;;;22.94;43.55;100069.77;104970;1271;72621;-75
2022/07/06 10:27:42;;;;;;;4.60;0.90;;;;;;;22.02;46.54;100077.48;104997;1271;59786;-73
2022/07/06 10:30:32;;;;;;;4.30;0.90;;;;;;;21.08;49.51;100084.22;105051;1271;60513;-74
2022/07/06 10:33:22;;;;;;;5.10;1.10;;;;;;;20.29;52.01;100091.27;105085;1271;73904;-73
2022/07/06 10:36:16;;;;;;;6.10;1.20;;;;;;;19.70;53.66;100089.27;104913;1272;68674;-74
2022/07/06 10:41:02;;;;;;;5.50;1.10;;;;;;;19.34;56.26;100092.20;104883;1272;73300;-76
2022/07/06 10:42:51;;;;;;;6.30;1.30;;;;;;;18.97;58.60;100095.48;104746;1271;59658;-73
2022/07/06 10:45:46;;;;;;;5.30;1.20;;;;;;;18.78;59.15;100092.16;105055;1271;59579;-74
2022/07/06 10:48:45;;;;;;;5.60;1.10;;;;;;;18.52;61.25;100091.74;104959;1273;73590;-73
2022/07/06 10:51:34;;;;;;;6.00;1.00;;;;;;;18.41;62.32;100081.52;104806;1271;68658;-74
2022/07/06 10:54:23;;;;;;;6.20;1.30;;;;;;;18.43;62.79;100084.21;104918;1271;73401;-73
2022/07/06 10:57:18;;;;;;;5.20;1.10;;;;;;;18.51;64.08;100081.00;104739;1273;59655;-73
2022/07/06 11:00:14;;;;;;;5.80;1.50;;;;;;;18.54;64.69;100079.34;105016;1272;59632;-72
2022/07/06 11:04:08;;;;;;;6.60;1.30;;;;;;;18.65;64.55;100074.61;104803;1272;74813;-77
2022/07/06 11:06:56;;;;;;;7.90;1.40;;;;;;;18.68;64.65;100070.96;105550;1271;69628;-80
2022/07/06 11:09:59;;;;;;;6.90;1.50;;;;;;;18.74;64.70;100069.23;105970;1271;72677;-78
2022/07/06 11:12:47;;;;;;;6.40;1.40;;;;;;;18.82;64.76;100071.16;105353;1271;59746;-74
2022/07/06 11:15:49;;;;;;;5.70;1.40;;;;;;;18.92;64.71;100068.88;105208;1271;59526;-76
2022/07/06 11:19:09;;;;;;;5.50;1.50;;;;;;;19.24;65.79;100066.11;105068;1274;72048;-78
2022/07/06 11:22:08;;;;;;;7.90;1.40;;;;;;;20.14;64.08;100061.52;105195;1273;66573;-77
2022/07/06 11:24:57;;;;;;;6.20;1.50;;;;;;;21.17;59.46;100053.83;105382;1271;72632;-75
2022/07/06 11:27:45;;;;;;;6.20;1.30;;;;;;;22.41;54.20;100041.97;105111;1271;59684;-77
2022/07/06 11:30:34;;;;;;;4.90;1.00;;;;;;;23.29;49.91;100033.66;104793;1271;60526;-77
2022/07/06 11:33:33;;;;;;;5.50;1.00;;;;;;;23.77;47.64;100030.38;105077;1273;73176;-78
2022/07/06 11:36:22;;;;;;;6.20;1.40;;;;;;;23.62;46.99;100032.14;105272;1274;66081;-75
2022/07/06 11:39:10;;;;;;;6.60;1.00;;;;;;;23.69;47.79;100032.78;105207;1271;73544;-78
2022/07/06 11:42:01;;;;;;;5.70;1.20;;;;;;;23.77;46.61;100028.78;105163;1271;59874;-78
2022/07/06 11:44:50;;;;;;;5.80;1.10;;;;;;;23.93;47.02;100025.57;104969;1271;60545;-78
2022/07/06 11:47:38;;;;;;;5.90;1.20;;;;;;;24.10;45.88;100017.43;104940;1271;73667;-77
2022/07/06 11:50:29;;;;;;;4.80;1.00;;;;;;;23.91;43.87;100015.61;105046;1271;68896;-78
2022/07/06 11:53:17;;;;;;;5.50;1.00;;;;;;;23.66;43.90;100018.20;105087;1271;72403;-77
2022/07/06 11:56:05;;;;;;;5.00;1.00;;;;;;;23.39;43.87;100020.43;105055;1273;59787;-76
2022/07/06 11:58:59;;;;;;;4.30;0.90;;;;;;;23.35;43.49;100020.60;105065;1271;60687;-77
2022/07/06 12:01:47;;;;;;;4.80;1.00;;;;;;;23.33;42.92;100014.90;105145;1271;73485;-77
2022/07/06 12:04:39;;;;;;;5.40;1.10;;;;;;;23.45;42.69;100016.39;105024;1272;68234;-77
2022/07/06 12:07:27;;;;;;;4.60;0.90;;;;;;;23.60;42.64;100024.86;105350;1271;74182;-79
2022/07/06 12:10:33;;;;;;;4.40;1.00;;;;;;;23.64;42.38;100023.54;105181;1272;59708;-78
2022/07/06 12:13:21;;;;;;;4.80;1.00;;;;;;;23.40;43.10;100022.57;105082;1272;59583;-77
2022/07/06 12:16:17;;;;;;;5.50;0.90;;;;;;;23.26;44.14;100024.36;105163;1271;73040;-79
2022/07/06 12:19:07;;;;;;;4.60;0.90;;;;;;;23.27;43.74;100025.33;105060;1274;67726;-79
2022/07/06 12:21:56;;;;;;;4.90;1.10;;;;;;;23.37;43.99;100028.57;105110;1271;73433;-79
2022/07/06 12:24:45;;;;;;;5.20;0.70;;;;;;;23.23;43.52;100027.52;105051;1272;59575;-79
2022/07/06 12:27:35;;;;;;;4.80;0.90;;;;;;;23.17;43.19;100027.96;105050;1271;59645;-78
2022/07/06 12:30:23;;;;;;;7.80;1.00;;;;;;;23.11;42.66;100031.55;105147;1272;70713;-78
2022/07/06 12:33:17;;;;;;;7.10;1.30;;;;;;;23.05;43.52;100026.04;105150;1271;68998;-77
2022/07/06 12:36:18;;;;;;;6.30;1.20;;;;;;;22.70;43.66;100029.33;105360;1271;74402;-80
2022/07/06 12:39:14;;;;;;;6.40;1.20;;;;;;;22.26;44.37;100033.06;104986;1272;59787;-77
2022/07/06 12:42:04;;;;;;;6.40;1.10;;;;;;;21.96;45.59;100043.19;105335;1271;59587;-79
2022/07/06 12:44:53;;;;;;;5.60;1.20;;;;;;;21.69;47.12;100043.14;105203;1271;73303;-78
2022/07/06 12:47:50;;;;;;;5.70;1.10;;;;;;;21.38;50.22;100050.02;105207;1271;68491;-77
2022/07/06 12:50:40;;;;;;;5.00;1.20;;;;;;;21.04;52.64;100054.79;105080;1272;73214;-79
2022/07/06 12:53:30;;;;;;;6.60;1.20;;;;;;;20.76;54.04;100050.05;105117;1272;59780;-79
2022/07/06 12:56:21;;;;;;;6.40;1.20;;;;;;;20.70;54.23;100050.80;105379;1271;59595;-77
2022/07/06 12:59:09;;;;;;;6.10;1.30;;;;;;;20.64;53.84;100048.27;105156;1272;73926;-79
2022/07/06 13:01:57;;;;;;;6.80;1.30;;;;;;;20.54;53.94;100045.95;105078;1271;65573;-77
2022/07/06 13:05:04;;;;;;;6.00;1.10;;;;;;;20.36;54.60;100045.23;105079;1271;72857;-73
2022/07/06 13:07:55;;;;;;;5.50;1.00;;;;;;;19.97;53.53;100047.16;105059;1271;59558;-74
2022/07/06 13:10:44;;;;;;;5.60;1.10;;;;;;;19.59;52.48;100040.26;104970;1271;60366;-75
2022/07/06 13:13:43;;;;;;;6.70;1.10;;;;;;;19.31;51.08;100042.20;105741;1271;74495;-77